createdAt,value
2019-03-29T00:02:18.939Z,89.30
2019-03-29T00:04:58.941Z,89.40
2019-03-29T00:07:40.098Z,89.30
2019-03-29T00:10:20.957Z,89.20
2019-03-29T00:13:00.854Z,89.40
2019-03-29T00:15:40.576Z,89.50
2019-03-29T00:18:20.836Z,89.80
2019-03-29T00:21:00.689Z,90.20
2019-03-29T00:23:41.091Z,90.20
2019-03-29T00:26:20.791Z,90.40
2019-03-29T00:29:00.836Z,90.60
2019-03-29T00:31:40.892Z,90.50
2019-03-29T00:34:20.979Z,90.60
2019-03-29T00:37:01.330Z,90.30
2019-03-29T00:39:41.978Z,90.70
2019-03-29T00:42:21.501Z,91.30
2019-03-29T00:45:01.694Z,91.60
2019-03-29T00:47:42.735Z,91.70
2019-03-29T00:50:23.206Z,91.50
2019-03-29T00:53:02.952Z,91.50
2019-03-29T00:55:43.630Z,91.40
2019-03-29T00:58:23.818Z,91.40
2019-03-29T01:01:04.533Z,91.60
2019-03-29T01:03:44.593Z,92.20
2019-03-29T01:06:24.439Z,92.50
2019-03-29T01:09:04.994Z,92.30
2019-03-29T01:11:45.080Z,91.80
2019-03-29T01:14:25.127Z,92.40
2019-03-29T01:17:04.788Z,92.50
2019-03-29T01:19:45.190Z,92.90
2019-03-29T01:22:25.052Z,92.70
2019-03-29T01:25:05.516Z,92.90
2019-03-29T01:27:34.533Z,93.10
2019-03-29T01:30:13.964Z,93.40
2019-03-29T01:32:54.491Z,93.30
2019-03-29T01:35:34.390Z,93.40
2019-03-29T01:38:21.616Z,93.30
2019-03-29T01:41:01.127Z,93.20
2019-03-29T01:43:41.577Z,93.30
2019-03-29T01:46:21.461Z,93.30
2019-03-29T01:49:01.928Z,93.60
2019-03-29T01:51:41.864Z,93.60
2019-03-29T01:54:21.982Z,93.80
2019-03-29T01:57:01.748Z,93.50
2019-03-29T01:59:42.998Z,93.20
2019-03-29T02:02:24.132Z,93.00
2019-03-29T02:05:03.733Z,93.30
2019-03-29T02:07:43.783Z,93.60
2019-03-29T02:10:23.759Z,93.60
2019-03-29T02:13:04.078Z,93.20
2019-03-29T02:15:44.450Z,93.10
2019-03-29T02:18:24.445Z,93.00
2019-03-29T02:21:04.283Z,92.40
2019-03-29T02:23:44.489Z,91.90
2019-03-29T02:26:24.580Z,92.70
2019-03-29T02:29:04.623Z,93.90
2019-03-29T02:31:44.739Z,94.70
2019-03-29T02:37:05.221Z,94.40
2019-03-29T02:39:43.223Z,93.90
2019-03-29T02:45:34.372Z,94.80
2019-03-29T02:48:21.523Z,95.10
2019-03-29T02:51:01.349Z,95.00
2019-03-29T02:53:41.174Z,95.00
2019-03-29T02:56:21.296Z,95.00
2019-03-29T02:59:01.552Z,94.50
2019-03-29T03:01:41.289Z,94.40
2019-03-29T03:04:21.362Z,93.90
2019-03-29T03:07:01.717Z,92.00
2019-03-29T03:09:43.221Z,91.80
2019-03-29T03:15:03.638Z,91.60
2019-03-29T03:17:44.141Z,92.00
2019-03-29T03:20:24.168Z,92.50
2019-03-29T03:23:04.225Z,92.90
2019-03-29T03:25:44.367Z,92.90
2019-03-29T03:28:24.844Z,92.80
2019-03-29T03:31:04.735Z,92.90
2019-03-29T03:33:45.076Z,93.90
2019-03-29T03:36:24.781Z,95.10
2019-03-29T03:39:03.992Z,96.10
2019-03-29T03:41:44.423Z,96.10
2019-03-29T03:44:31.123Z,96.10
2019-03-29T03:47:10.609Z,96.40
2019-03-29T03:49:50.889Z,96.60
2019-03-29T03:52:31.053Z,96.40
2019-03-29T03:55:10.935Z,96.20
2019-03-29T03:57:50.801Z,95.40
2019-03-29T04:00:30.756Z,95.70
2019-03-29T04:03:10.761Z,95.40
2019-03-29T04:05:50.660Z,95.30
2019-03-29T04:08:30.909Z,94.90
2019-03-29T04:11:10.794Z,94.70
2019-03-29T04:13:51.025Z,94.70
2019-03-29T04:16:32.114Z,94.30
2019-03-29T04:19:11.981Z,94.10
2019-03-29T04:21:51.955Z,93.80
2019-03-29T04:24:32.017Z,93.70
2019-03-29T04:27:12.373Z,93.30
2019-03-29T04:29:52.327Z,93.30
2019-03-29T04:32:32.020Z,93.40
2019-03-29T04:35:11.775Z,94.10
2019-03-29T04:37:52.040Z,94.40
2019-03-29T04:40:31.777Z,94.30
2019-03-29T04:43:11.973Z,94.10
2019-03-29T04:45:51.845Z,93.90
2019-03-29T04:48:31.571Z,94.00
2019-03-29T04:51:11.828Z,93.90
2019-03-29T04:53:51.686Z,93.80
2019-03-29T04:56:31.843Z,95.10
2019-03-29T04:59:11.736Z,95.80
2019-03-29T05:01:51.865Z,95.90
2019-03-29T05:04:31.918Z,95.80
2019-03-29T05:07:11.897Z,95.90
2019-03-29T05:09:52.066Z,95.80
2019-03-29T05:12:32.103Z,96.30
2019-03-29T05:15:11.963Z,96.30
2019-03-29T05:17:52.150Z,96.20
2019-03-29T05:20:31.988Z,96.10
2019-03-29T05:23:11.963Z,95.80
2019-03-29T05:25:52.289Z,95.90
2019-03-29T05:28:33.249Z,96.10
2019-03-29T05:31:14.286Z,95.90
2019-03-29T05:33:53.858Z,95.80
2019-03-29T05:36:34.288Z,96.40
2019-03-29T05:39:15.303Z,96.60
2019-03-29T05:41:55.124Z,96.60
2019-03-29T05:44:35.258Z,96.30
2019-03-29T05:47:15.575Z,96.30
2019-03-29T05:49:55.519Z,95.80
2019-03-29T05:52:35.518Z,95.10
2019-03-29T05:55:15.593Z,94.30
2019-03-29T05:57:55.727Z,93.30
2019-03-29T06:00:35.582Z,92.20
2019-03-29T06:03:15.773Z,91.00
2019-03-29T06:05:56.277Z,91.00
2019-03-29T06:08:36.461Z,90.60
2019-03-29T06:11:16.367Z,91.20
2019-03-29T06:13:56.420Z,89.40
2019-03-29T06:16:39.088Z,87.40
2019-03-29T06:19:23.610Z,86.00
2019-03-29T06:22:04.007Z,84.30
2019-03-29T06:24:43.915Z,84.10
2019-03-29T06:27:24.104Z,83.90
2019-03-29T06:30:04.452Z,83.50
2019-03-29T06:32:44.573Z,83.10
2019-03-29T06:35:24.996Z,81.90
2019-03-29T06:38:04.676Z,81.00
2019-03-29T06:40:45.063Z,80.30
2019-03-29T06:43:25.009Z,79.40
2019-03-29T06:46:05.161Z,79.40
2019-03-29T06:48:45.020Z,79.60
2019-03-29T06:51:24.889Z,79.40
2019-03-29T06:54:05.778Z,78.90
2019-03-29T06:56:45.841Z,78.30
2019-03-29T06:59:25.739Z,77.50
2019-03-29T07:02:06.124Z,76.70
2019-03-29T07:04:46.154Z,76.50
2019-03-29T07:07:26.144Z,76.40
2019-03-29T07:10:06.663Z,75.60
2019-03-29T07:12:45.082Z,75.00
2019-03-29T07:15:32.124Z,74.30
2019-03-29T07:18:12.191Z,74.20
2019-03-29T07:20:52.136Z,74.20
2019-03-29T07:23:31.771Z,74.20
2019-03-29T07:26:11.740Z,72.90
2019-03-29T07:28:51.907Z,71.70
2019-03-29T07:31:31.852Z,70.60
2019-03-29T07:34:12.274Z,70.20
2019-03-29T07:36:52.236Z,69.50
2019-03-29T07:39:32.365Z,68.80
2019-03-29T07:42:12.384Z,69.70
2019-03-29T07:44:52.399Z,69.10
2019-03-29T07:47:32.360Z,67.90
2019-03-29T07:50:12.345Z,66.40
2019-03-29T07:52:52.668Z,65.60
2019-03-29T07:55:36.898Z,66.00
2019-03-29T07:58:15.402Z,64.90
2019-03-29T08:00:55.525Z,65.40
2019-03-29T08:03:35.610Z,66.60
2019-03-29T08:06:15.717Z,65.90
2019-03-29T08:08:55.789Z,64.70
2019-03-29T08:11:46.221Z,64.90
2019-03-29T08:14:17.775Z,66.10
2019-03-29T08:16:57.705Z,63.80
2019-03-29T08:19:37.693Z,64.70
2019-03-29T08:22:17.684Z,63.80
2019-03-29T08:24:59.415Z,65.90
2019-03-29T08:27:39.421Z,64.00
2019-03-29T08:30:19.876Z,61.90
2019-03-29T08:32:59.729Z,62.00
2019-03-29T08:35:39.990Z,60.10
2019-03-29T08:38:20.502Z,58.60
2019-03-29T08:41:02.315Z,57.80
2019-03-29T08:43:43.813Z,57.10
2019-03-29T08:46:27.115Z,57.80
2019-03-29T08:49:07.034Z,56.70
2019-03-29T08:51:46.821Z,53.90
2019-03-29T08:54:28.205Z,53.50
2019-03-29T08:57:10.848Z,53.00
2019-03-29T08:59:51.283Z,52.70
2019-03-29T09:02:31.475Z,53.20
2019-03-29T09:05:11.697Z,54.80
2019-03-29T09:07:51.354Z,53.50
2019-03-29T09:10:31.253Z,52.30
2019-03-29T09:13:12.170Z,51.40
2019-03-29T09:15:52.359Z,50.70
2019-03-29T09:18:32.324Z,51.20
2019-03-29T09:21:12.162Z,51.50
2019-03-29T09:23:52.617Z,51.00
2019-03-29T09:26:36.171Z,50.10
2019-03-29T09:29:16.163Z,48.60
2019-03-29T09:31:56.610Z,46.90
2019-03-29T09:34:36.568Z,54.20
2019-03-29T09:37:20.448Z,54.10
2019-03-29T09:40:00.380Z,55.90
2019-03-29T09:42:40.149Z,58.10
2019-03-29T09:45:20.414Z,56.90
2019-03-29T09:48:00.280Z,59.50
2019-03-29T09:50:40.568Z,61.60
2019-03-29T09:53:20.659Z,61.60
2019-03-29T09:56:01.059Z,57.60
2019-03-29T09:58:44.784Z,55.10
2019-03-29T10:01:23.319Z,53.90
2019-03-29T10:04:03.550Z,53.90
2019-03-29T10:06:43.739Z,54.60
2019-03-29T10:09:23.372Z,54.60
2019-03-29T10:12:03.572Z,55.40
2019-03-29T10:14:42.920Z,56.50
2019-03-29T10:17:23.120Z,56.80
2019-03-29T10:20:03.164Z,55.70
2019-03-29T10:22:44.345Z,56.80
2019-03-29T10:25:25.235Z,56.80
2019-03-29T10:28:05.256Z,57.50
2019-03-29T10:33:31.857Z,59.60
2019-03-29T10:36:11.873Z,59.10
2019-03-29T10:38:51.487Z,60.30
2019-03-29T10:41:34.493Z,59.40
2019-03-29T10:44:13.771Z,58.90
2019-03-29T10:46:53.831Z,58.30
2019-03-29T10:49:35.344Z,57.80
2019-03-29T10:52:15.720Z,56.60
2019-03-29T10:54:56.178Z,55.10
2019-03-29T10:57:36.125Z,53.10
2019-03-29T11:00:17.346Z,48.50
2019-03-29T11:02:56.951Z,46.70
2019-03-29T11:05:37.457Z,43.90
2019-03-29T11:08:17.559Z,46.20
2019-03-29T11:10:58.096Z,48.00
2019-03-29T11:13:40.810Z,45.60
2019-03-29T11:16:19.920Z,44.90
2019-03-29T11:19:01.217Z,42.60
2019-03-29T11:21:41.059Z,41.20
2019-03-29T11:24:20.931Z,41.00
2019-03-29T11:27:01.430Z,40.80
2019-03-29T11:29:41.459Z,40.80
2019-03-29T11:32:21.342Z,41.70
2019-03-29T11:35:01.444Z,40.20
2019-03-29T11:37:41.393Z,40.20
2019-03-29T11:40:21.603Z,39.40
2019-03-29T11:43:01.704Z,39.10
2019-03-29T11:45:41.727Z,37.60
2019-03-29T11:48:21.520Z,37.30
2019-03-29T11:51:01.329Z,37.90
2019-03-29T11:53:41.820Z,36.40
2019-03-29T11:56:21.416Z,35.30
2019-03-29T11:59:01.329Z,35.20
2019-03-29T12:01:42.432Z,36.60
2019-03-29T12:04:23.384Z,39.60
2019-03-29T12:07:03.651Z,39.00
2019-03-29T12:09:44.280Z,38.80
2019-03-29T12:12:27.515Z,39.00
2019-03-29T12:15:06.260Z,38.60
2019-03-29T12:17:46.652Z,40.70
2019-03-29T12:20:25.905Z,40.40
2019-03-29T12:23:06.076Z,38.80
2019-03-29T12:25:46.424Z,37.60
2019-03-29T12:28:26.186Z,37.90
2019-03-29T12:31:05.970Z,38.30
2019-03-29T12:33:46.031Z,38.60
2019-03-29T12:36:25.869Z,37.70
2019-03-29T12:39:06.058Z,40.60
2019-03-29T12:41:45.707Z,43.20
2019-03-29T12:44:25.830Z,40.40
2019-03-29T12:47:05.845Z,37.50
2019-03-29T12:49:45.823Z,34.40
2019-03-29T12:52:25.856Z,33.60
2019-03-29T12:55:07.250Z,34.10
2019-03-29T12:57:48.549Z,35.30
2019-03-29T13:00:26.828Z,34.50
2019-03-29T13:03:14.121Z,36.60
2019-03-29T13:05:54.300Z,35.80
2019-03-29T13:08:33.881Z,36.10
2019-03-29T13:11:13.900Z,36.20
2019-03-29T13:14:08.771Z,36.70
2019-03-29T13:16:36.196Z,37.90
2019-03-29T13:19:16.401Z,37.80
2019-03-29T13:21:56.293Z,36.80
2019-03-29T13:24:36.265Z,35.80
2019-03-29T13:27:16.212Z,34.40
2019-03-29T13:29:56.117Z,34.40
2019-03-29T13:32:36.231Z,33.60
2019-03-29T13:35:16.258Z,34.30
2019-03-29T13:37:56.816Z,32.50
2019-03-29T13:40:36.620Z,32.00
2019-03-29T13:43:16.478Z,34.40
2019-03-29T13:45:56.513Z,35.20
2019-03-29T13:48:37.691Z,33.60
2019-03-29T13:51:17.456Z,35.40
2019-03-29T13:53:57.805Z,35.20
2019-03-29T13:56:38.523Z,34.60
2019-03-29T13:59:18.778Z,32.70
2019-03-29T14:01:58.884Z,34.40
2019-03-29T14:04:39.848Z,38.30
2019-03-29T14:07:20.067Z,38.90
2019-03-29T14:12:40.218Z,35.50
2019-03-29T14:15:20.250Z,35.10
2019-03-29T14:18:01.359Z,35.50
2019-03-29T14:20:41.569Z,35.40
2019-03-29T14:23:09.664Z,37.50
2019-03-29T14:25:56.835Z,35.80
2019-03-29T14:28:36.535Z,35.50
2019-03-29T14:31:16.684Z,37.60
2019-03-29T14:33:58.057Z,38.40
2019-03-29T14:36:37.584Z,40.40
2019-03-29T14:39:17.701Z,43.00
2019-03-29T14:41:57.746Z,43.00
2019-03-29T14:44:51.454Z,41.90
2019-03-29T14:47:20.557Z,40.50
2019-03-29T14:50:00.759Z,38.40
2019-03-29T14:52:40.784Z,40.70
2019-03-29T14:55:20.513Z,39.20
2019-03-29T14:58:01.017Z,38.00
2019-03-29T15:00:40.718Z,40.70
2019-03-29T15:03:20.785Z,43.70
2019-03-29T15:06:01.827Z,44.00
2019-03-29T15:08:42.200Z,41.90
2019-03-29T15:11:22.973Z,43.00
2019-03-29T15:14:03.338Z,43.70
2019-03-29T15:16:44.661Z,42.30
2019-03-29T15:19:24.852Z,42.60
2019-03-29T15:22:04.622Z,42.60
2019-03-29T15:24:44.844Z,42.90
2019-03-29T15:27:24.958Z,40.80
2019-03-29T15:30:05.820Z,39.70
2019-03-29T15:32:46.344Z,41.20
2019-03-29T15:35:26.269Z,40.60
2019-03-29T15:38:06.476Z,40.40
2019-03-29T15:43:26.404Z,40.30
2019-03-29T15:46:06.670Z,40.80
2019-03-29T15:48:46.785Z,40.70
2019-03-29T15:51:26.627Z,42.10
2019-03-29T15:54:07.123Z,43.20
2019-03-29T15:56:47.975Z,43.00
2019-03-29T15:59:28.195Z,42.90
2019-03-29T16:02:07.711Z,44.00
2019-03-29T16:04:47.696Z,43.00
2019-03-29T16:07:27.708Z,44.30
2019-03-29T16:10:07.881Z,45.10
2019-03-29T16:12:47.728Z,46.10
2019-03-29T16:15:36.555Z,47.20
2019-03-29T16:18:09.799Z,47.60
2019-03-29T16:20:49.950Z,46.50
2019-03-29T16:23:29.925Z,46.40
2019-03-29T16:26:10.141Z,46.10
2019-03-29T16:28:51.452Z,47.10
2019-03-29T16:31:31.353Z,46.80
2019-03-29T16:34:11.499Z,46.00
2019-03-29T16:36:39.137Z,45.30
2019-03-29T16:39:06.982Z,45.30
2019-03-29T16:41:34.482Z,44.70
2019-03-29T16:44:02.682Z,45.60
2019-03-29T16:46:31.717Z,45.50
2019-03-29T16:49:00.479Z,46.20
2019-03-29T16:51:27.959Z,47.30
2019-03-29T16:53:56.127Z,47.20
2019-03-29T16:56:23.635Z,46.80
2019-03-29T16:58:51.552Z,46.40
2019-03-29T17:01:19.032Z,46.30
2019-03-29T17:03:46.879Z,46.60
2019-03-29T17:06:15.056Z,47.60
2019-03-29T17:08:42.960Z,48.10
2019-03-29T17:11:11.092Z,48.50
2019-03-29T17:13:39.051Z,49.30
2019-03-29T17:16:07.675Z,49.50
2019-03-29T17:18:35.712Z,50.30
2019-03-29T17:21:07.357Z,50.40
2019-03-29T17:23:36.261Z,50.80
2019-03-29T17:26:03.992Z,50.90
2019-03-29T17:28:31.811Z,51.40
2019-03-29T17:31:02.217Z,52.00
2019-03-29T17:33:29.959Z,52.60
2019-03-29T17:35:58.288Z,53.40
2019-03-29T17:38:25.960Z,54.10
2019-03-29T17:40:53.729Z,54.30
2019-03-29T17:43:21.243Z,54.80
2019-03-29T17:45:48.996Z,55.40
2019-03-29T17:48:17.120Z,55.80
2019-03-29T17:50:45.112Z,56.40
2019-03-29T17:53:14.759Z,56.80
2019-03-29T17:55:43.786Z,57.10
2019-03-29T17:58:11.313Z,57.40
2019-03-29T18:00:39.287Z,57.70
2019-03-29T18:03:06.781Z,58.20
2019-03-29T18:05:35.040Z,58.40
2019-03-29T18:08:02.924Z,58.80
2019-03-29T18:10:30.833Z,59.30
2019-03-29T18:12:58.631Z,59.50
2019-03-29T18:15:29.593Z,59.70
2019-03-29T18:17:57.854Z,60.00
2019-03-29T18:20:25.792Z,60.40
2019-03-29T18:22:53.718Z,60.70
2019-03-29T18:25:22.018Z,60.70
2019-03-29T18:27:49.717Z,61.00
2019-03-29T18:30:24.083Z,61.10
2019-03-29T18:32:53.128Z,61.50
2019-03-29T18:35:21.369Z,61.70
2019-03-29T18:37:49.362Z,62.10
2019-03-29T18:40:24.716Z,62.50
2019-03-29T18:42:53.011Z,62.80
2019-03-29T18:45:20.696Z,63.20
2019-03-29T18:47:48.884Z,63.60
2019-03-29T18:50:16.659Z,64.00
2019-03-29T18:52:44.639Z,64.20
2019-03-29T18:55:12.731Z,64.80
2019-03-29T18:57:40.455Z,65.30
2019-03-29T19:00:08.450Z,65.80
2019-03-29T19:02:36.823Z,66.30
2019-03-29T19:05:06.114Z,66.80
2019-03-29T19:07:33.547Z,67.20
2019-03-29T19:10:01.543Z,67.50
2019-03-29T19:12:29.444Z,68.00
2019-03-29T19:14:57.834Z,68.30
2019-03-29T19:17:28.759Z,68.60
2019-03-29T19:19:56.576Z,68.80
2019-03-29T19:22:24.320Z,69.10
2019-03-29T19:24:52.068Z,69.30
2019-03-29T19:27:19.744Z,69.60
2019-03-29T19:29:47.545Z,69.90
2019-03-29T19:32:15.432Z,70.10
2019-03-29T19:34:43.506Z,70.40
2019-03-29T19:37:11.023Z,70.80
2019-03-29T19:39:38.689Z,70.90
2019-03-29T19:42:06.625Z,71.30
2019-03-29T19:44:35.142Z,71.60
2019-03-29T19:47:13.440Z,71.90
2019-03-29T19:49:36.296Z,72.20
2019-03-29T19:52:05.222Z,72.30
2019-03-29T19:54:36.325Z,72.50
2019-03-29T19:57:04.175Z,72.70
2019-03-29T19:59:31.820Z,73.00
2019-03-29T20:02:00.497Z,73.10
2019-03-29T20:04:28.335Z,73.10
2019-03-29T20:06:57.009Z,73.30
2019-03-29T20:09:24.834Z,73.40
2019-03-29T20:11:52.840Z,73.50
2019-03-29T20:14:20.998Z,73.70
2019-03-29T20:16:49.200Z,73.80
2019-03-29T20:19:20.092Z,74.00
2019-03-29T20:21:47.423Z,74.10
2019-03-29T20:24:15.172Z,74.20
2019-03-29T20:26:43.170Z,74.40
2019-03-29T20:29:10.915Z,74.50
2019-03-29T20:31:38.662Z,74.50
2019-03-29T20:34:06.486Z,74.50
2019-03-29T20:36:34.747Z,74.50
2019-03-29T20:39:03.021Z,74.60
2019-03-29T20:41:31.723Z,74.70
2019-03-29T20:43:59.308Z,74.70
2019-03-29T20:46:27.483Z,74.80
2019-03-29T20:48:55.112Z,75.00
2019-03-29T20:51:23.218Z,75.10
2019-03-29T20:53:50.910Z,75.20
2019-03-29T20:56:19.081Z,75.40
2019-03-29T20:58:47.404Z,75.50
2019-03-29T21:01:16.562Z,75.70
2019-03-29T21:03:44.389Z,75.80
2019-03-29T21:06:12.612Z,75.90
2019-03-29T21:08:40.589Z,75.90
2019-03-29T21:11:08.584Z,76.10
2019-03-29T21:13:36.593Z,76.20
2019-03-29T21:16:04.487Z,76.40
2019-03-29T21:18:32.580Z,76.50
2019-03-29T21:21:00.481Z,76.80
2019-03-29T21:23:28.095Z,77.00
2019-03-29T21:25:56.092Z,77.10
2019-03-29T21:28:24.124Z,77.20
2019-03-29T21:30:52.018Z,77.20
2019-03-29T21:33:19.393Z,77.30
2019-03-29T21:35:46.892Z,77.40
2019-03-29T21:38:14.854Z,77.40
2019-03-29T21:40:42.235Z,77.50
2019-03-29T21:43:10.104Z,77.80
2019-03-29T21:45:37.999Z,78.00
2019-03-29T21:48:27.290Z,78.10
2019-03-29T21:50:36.492Z,78.30
2019-03-29T21:53:04.379Z,78.40
2019-03-29T21:55:33.473Z,78.70
2019-03-29T21:58:01.334Z,78.70
2019-03-29T22:00:29.088Z,78.90
2019-03-29T22:02:57.062Z,79.00
2019-03-29T22:05:24.951Z,79.10
2019-03-29T22:07:52.871Z,79.40
2019-03-29T22:10:20.909Z,79.60
2019-03-29T22:12:49.081Z,79.80
2019-03-29T22:15:18.292Z,80.10
2019-03-29T22:17:46.314Z,80.20
2019-03-29T22:20:14.784Z,80.30
2019-03-29T22:22:42.565Z,80.40
2019-03-29T22:25:10.625Z,80.60
2019-03-29T22:27:38.029Z,80.70
2019-03-29T22:30:08.047Z,80.90
2019-03-29T22:32:35.790Z,81.00
2019-03-29T22:35:04.641Z,81.40
2019-03-29T22:37:32.497Z,81.50
2019-03-29T22:40:00.404Z,81.60
2019-03-29T22:42:27.915Z,81.60
2019-03-29T22:44:55.871Z,81.50
2019-03-29T22:47:23.584Z,81.70
2019-03-29T22:49:51.277Z,81.70
2019-03-29T22:52:19.306Z,81.70
2019-03-29T22:54:47.324Z,81.70
2019-03-29T22:57:15.137Z,82.00
2019-03-29T22:59:42.837Z,82.10
2019-03-29T23:02:10.824Z,82.00
2019-03-29T23:04:38.390Z,82.20
2019-03-29T23:07:06.238Z,82.30
2019-03-29T23:09:33.995Z,82.30
2019-03-29T23:12:01.926Z,82.50
2019-03-29T23:14:29.914Z,82.60
2019-03-29T23:16:57.797Z,82.90
2019-03-29T23:19:25.649Z,82.90
2019-03-29T23:21:53.546Z,82.80
2019-03-29T23:24:21.063Z,82.90
2019-03-29T23:26:48.987Z,82.90
2019-03-29T23:29:16.862Z,82.80
2019-03-29T23:31:44.335Z,82.90
2019-03-29T23:34:12.378Z,82.60
2019-03-29T23:36:40.180Z,82.80
2019-03-29T23:39:08.462Z,83.30
2019-03-29T23:41:36.355Z,83.50
2019-03-29T23:44:04.278Z,83.40
2019-03-29T23:46:31.919Z,83.60
2019-03-29T23:48:59.704Z,83.80
2019-03-29T23:51:28.383Z,84.00
2019-03-29T23:53:56.457Z,84.10
2019-03-29T23:56:24.413Z,83.40
2019-03-29T23:58:52.393Z,83.40
